• Join FlightAware (Why Join?)
  • Login
  • US Flag 
10:26AM EDT


 

Airport Tracker/Info


-or-


 

Live Flight TrackerFlight Track Log ✈ N129CG ✈ 21-Jul-2013 ✈ MYBS / BIM - KTMB

Flight Track Log - Related Links

Times and Time Zones

All times are in EDT time to prevent confusion due to time zone crossing. See the N129CG flight status page for this flight to view local times or setup timezone preferences in your user account.

Time Position Orientation Groundspeed Altitude Reporting Facility
EDT Latitude Longitude Course Direction KTS MPH feet Rate Location/Type
04:19PM 25.7169 -79.3153 232° Southwest 153 176 2,200  Level Miami Center
04:20PM 25.7186 -79.3475 273° West 132 152 3,000 780 Climbing Miami Center
04:21PM 25.7181 -79.3844 269° West 121 139 3,800 480 Climbing Miami Center
04:22PM 25.7131 -79.4281 263° West 127 146 4,000 120 Climbing Miami Center
04:23PM 25.7122 -79.4764 269° West 144 166 4,100  Climbing Miami Center
04:24PM 25.5361 -79.4842 232° Southwest  Level FlightAware Approximate
04:24PM 25.7072 -79.5247 263° West 156 180 4,100  Level Miami Center
04:24PM 25.7022 -79.5639 262° West 154 177 4,100  Level Miami Center
04:25PM 25.6992 -79.6100 266° West 154 177 4,100  Level Miami Center
04:26PM 25.6942 -79.6583 263° West 156 180 4,100  Level Miami Center
04:27PM 25.6911 -79.7067 266° West 156 180 4,100  Level Miami Center
04:28PM 25.6881 -79.7550 266° West 154 177 4,100 -120 Level Miami Center
04:29PM 25.6850 -79.8033 266° West 155 178 3,900 -360 Descending Miami Center
04:31PM 25.6839 -79.8586 269° West 161 185 3,400 -420 Descending Miami Center
04:31PM 25.6789 -79.9069 263° West 167 192 3,100 -240 Descending Miami Center
04:33PM 25.6778 -79.9575 269° West 161 185 3,000 -60 Descending Miami Center
04:34PM 25.6703 -80.0081 261° West 153 176 3,000  Level Miami Center
04:35PM 25.6694 -80.0564 269° West 147 169 3,100  Climbing Miami Center
04:36PM 25.6600 -80.1022 257° West 151 174 3,100 -300 Level Miami Center
04:37PM 25.6547 -80.1506 263° West 167 192 2,600 -480 Descending Miami Center
04:38PM 25.6453 -80.1986 258° West 168 193 2,200 -300 Descending Miami Center
04:39PM 25.6400 -80.2517 264° West 160 184 2,000 -120 Descending Miami Center
04:40PM 25.6306 -80.2950 256° West 153 176 2,000 -60 Level Miami Center
04:41PM 25.6233 -80.3408 260° West 150 173 1,900 -120 Descending Miami Center
04:42PM 25.6200 -80.3847 265° West 127 146 1,800 -180 Descending Miami Center
04:43PM 25.6192 -80.4192 268° West 99 114 1,600 -180 Descending Miami Center
04:44PM 25.6186 -80.4492 269° West 104 120 1,500 -540 Descending Miami Center
04:45PM 25.6372 -80.4567 340° North 95 109 600 -900 Descending Miami Center
04:47PM 25.6476 -80.4332 42° Northeast  Level Estimated
04:54PM 25.6476 -80.4332 42° Northeast  Level Estimated
04:55PM 25.6476 -80.4332 42° Northeast  Level Estimated
04:56PM 25.6476 -80.4332 42° Northeast  Level Estimated
04:57PM 25.6476 -80.4332 42° Northeast  Level Estimated
04:58PM 25.6476 -80.4332 42° Northeast  Level Estimated